ADDS METAR Data INFO
IDs: Format: Raw Decoded Include TAF

Data at: 2311 UTC 16 Jan 2018

KCVN 162256Z AUTO 21005KT 10SM CLR 00/M14 A3049 RMK AO2 SLP362 T00001139 FZRANO
KCVN 162156Z AUTO 25005KT 10SM CLR 01/M14 A3050 RMK AO2 SLP365 T00061144 FZRANO
KCVN 162056Z AUTO 23007KT 10SM CLR M01/M13 A3052 RMK AO2 SLP372 T10111133 56035 FZRANO
KCVN 161956Z AUTO 22007KT 10SM FEW050 M01/M14 A3054 RMK AO2 SLP380 T10061139 FZRANO
KCVN 161856Z AUTO VRB03KT 10SM BKN050 M01/M14 A3058 RMK AO2 SLP395 T10111144 FZRANO
KCVN 161756Z AUTO 00000KT 10SM OVC050 M05/M17 A3063 RMK AO2 SLP418 T10501167 11050 21094 50003 FZRANO
KCVN 161656Z AUTO 06004KT 10SM OVC050 M07/M17 A3064 RMK AO2 SLP425 T10721172 FZRANO
KCVN 161556Z AUTO 06005KT 10SM OVC048 M08/M17 A3063 RMK AO2 SLP424 T10831172 FZRANO
KCVN 161456Z AUTO 05006KT 10SM OVC048 M09/M18 A3062 RMK AO2 SLP421 T10941183 51011 FZRANO
KCVN 161356Z AUTO 06007KT 10SM OVC050 M09/M18 A3061 RMK AO2 SLP418 T10941183 FZRANO
KCVN 161256Z AUTO 07006KT 10SM OVC050 M09/M18 A3060 RMK AO2 SLP411 T10891178 FZRANO
KCVN 161156Z AUTO 05010KT 10SM OVC050 M08/M17 A3058 RMK AO2 SLP403 T10831167 11067 21083 53003 FZRANO
KCVN 161056Z AUTO 04009KT 10SM OVC055 M08/M16 A3058 RMK AO2 SLP397 T10781156 FZRANO
KCVN 160956Z AUTO 04006KT 10SM OVC055 M07/M15 A3057 RMK AO2 SLP394 T10721150 FZRANO
KCVN 160856Z AUTO 04007KT 10SM OVC055 M07/M15 A3058 RMK AO2 SLP393 T10671150 55004 FZRANO
KCVN 160756Z AUTO 03008KT 10SM OVC055 M07/M15 A3057 RMK AO2 SLP392 T10671150 FZRANO
KCVN 160656Z AUTO 04009KT 10SM OVC055 M07/M15 A3058 RMK AO2 SLP393 T10671150 400171067 FZRANO
KCVN 160456Z AUTO 04010KT 10SM OVC049 M06/M15 A3057 RMK AO2 SLP392 T10611150 FZRANO
KCVN 160356Z AUTO 06014KT 10SM OVC049 M06/M16 A3054 RMK AO2 SLP381 T10611161 FZRANO
KCVN 160256Z AUTO 04013KT 10SM OVC047 M06/M14 A3053 RMK AO2 SLP375 T10561144 51027 FZRANO
KCVN 160156Z AUTO 05014KT 10SM OVC047 M05/M12 A3051 RMK AO2 SLP366 T10501117 FZRANO
KCVN 160056Z AUTO 05013KT 10SM OVC045 M05/M11 A3048 RMK AO2 SLP360 T10501106 FZRANO
KCVN 152356Z AUTO 05017G22KT 10SM OVC043 M04/M11 A3044 RMK AO2 SLP344 60000 T10391106 11017 21039 51022 FZRANO
KCVN 152256Z AUTO 04019KT 10SM OVC041 M03/M09 A3043 RMK AO2 SLP331 T10281094 FZRANO
KCVN 152156Z AUTO 05019G26KT 10SM OVC039 M02/M09 A3039 RMK AO2 PK WND 04027/2113 SLP317 T10221094 FZRANO
KCVN 152056Z AUTO 04021G26KT 10SM FEW019 OVC037 M02/M08 A3037 RMK AO2 PK WND 06028/2040 UPB05E08SNE05 SLP307 P0000 60000 T10171083 53003 FZRANO
KCVN 152053Z AUTO 04022G26KT 10SM SCT019 OVC035 M02/M08 A3037 RMK AO2 PK WND 06028/2040 UPB05E08SNE05 P0000 FZRANO
KCVN 152014Z AUTO 05023G27KT 10SM SCT008 OVC015 M02/M04 A3036 RMK AO2 PK WND 04027/2007 UPB05E08SNE05 P0000 FZRANO
KCVN 151956Z AUTO 04022G26KT 10SM -SN OVC008 M02/M04 A3036 RMK AO2 PK WND 04031/1912 UPB1858E12B33E53SNE1858B00E09B23E33B35E47B55 CIG 005V010 SLP306 P0000 T10221039 FZRANO
KCVN 151923Z AUTO 04024G28KT 10SM -SN OVC006 M02/M03 A3036 RMK AO2 PK WND 04031/1912 UPB1858E12SNE1858B00E09B23 CIG 004V009 P0000 FZRANO
KCVN 151856Z AUTO 04023G31KT 6SM -SN BR BKN004 OVC009 M02/M03 A3036 RMK AO2 PK WND 04031/1853 UPB10E47SNE10B12E21B47 SLP311 P0000 T10171028 FZRANO
KCVN 151807Z AUTO 04023G31KT 7SM -SN OVC004 M02/M03 A3035 RMK AO2 PK WND 04031/1800 P0000 FZRANO
KCVN 151756Z AUTO 04023G31KT 10SM -SN OVC006 M02/M03 A3035 RMK AO2 PK WND 04032/1713 UPE12B35E40SNB15E35B56 SLP303 P0000 60000 T10171028 10000 21044 51031 FZRANO
KCVN 151656Z AUTO 04023G31KT 10SM UP OVC008 M02/M03 A3034 RMK AO2 PK WND 04033/1643 UPB06SNB1557E06B20E29 SLP299 P0000 T10171033 FZRANO
KCVN 151556Z AUTO 03023G35KT 10SM OVC008 M02/M04 A3030 RMK AO2 PK WND 03035/1548 SLP286 T10171039 FZRANO
KCVN 151534Z AUTO 03027G33KT 10SM BKN010 M02/M04 A3028 RMK AO2 PK WND 02035/1513 FZRANO
KCVN 151456Z AUTO 02024G29KT 10SM CLR M01/M06 A3025 RMK AO2 PK WND 02029/1452 SLP262 T10111056 53030 FZRANO
KCVN 151356Z AUTO 35012KT 10SM CLR M01/M07 A3020 RMK AO2 SLP244 T10111067 FZRANO
KCVN 151256Z AUTO 28009KT 10SM CLR M04/M08 A3014 RMK AO2 SLP228 T10441083 FZRANO
KCVN 151156Z AUTO 32007KT 10SM CLR M03/M08 A3014 RMK AO2 SLP220 T10331078 10017 21044 55004 FZRANO